Terminal Aerodrome Forecast
Issued by NWS

Home | Current Version | Previous Version | Text Only | Print | Product List | Glossary Off
Versions: 1 2 3 4 5 6 7 8 9 10 11 12 13 14

000
FTUS41 KCLE 312331
TAFFDY
TAF
KFDY 312331Z 0100/0124 22004KT P6SM SKC
     FM010800 VRB03KT 4SM BR SKC
      TEMPO 0110/0112 00000KT 2SM BR
     FM011300 24008KT P6SM SCT040=

USA.gov is the U.S. government's official web portal to all federal, state and local government web resources and services.